sensor_id;sensor_type;location;lat;lon;timestamp;pressure;altitude;pressure_sealevel;temperature
79498;BMP180;75160;53.138;18.020;2024-01-06T13:31:50;100774.40;;;
79498;BMP180;75160;53.138;18.020;2024-01-06T13:32:52;100764.00;;;
79498;BMP180;75160;53.138;18.020;2024-01-06T13:33:55;100761.80;;;
79498;BMP180;75160;53.138;18.020;2024-01-06T13:34:57;100762.80;;;
79498;BMP180;75160;53.138;18.020;2024-01-06T13:36:06;100765.20;;;
79498;BMP180;75160;53.138;18.020;2024-01-06T13:37:08;100767.60;;;
79498;BMP180;75160;53.138;18.020;2024-01-06T13:38:10;100774.00;;;
79498;BMP180;75160;53.138;18.020;2024-01-06T13:39:12;100775.80;;;
79498;BMP180;75160;53.138;18.020;2024-01-06T13:40:23;100770.80;;;
79498;BMP180;75160;53.138;18.020;2024-01-06T13:41:25;100777.40;;;
79498;BMP180;75160;53.138;18.020;2024-01-06T13:42:26;100780.40;;;
79498;BMP180;75160;53.138;18.020;2024-01-06T13:43:28;100774.20;;;
79498;BMP180;75160;53.138;18.020;2024-01-06T13:44:30;100779.40;;;
79498;BMP180;75160;53.138;18.020;2024-01-06T13:45:32;100780.00;;;
79498;BMP180;75160;53.138;18.020;2024-01-06T13:46:35;100779.40;;;
79498;BMP180;75160;53.138;18.020;2024-01-06T13:47:36;100773.40;;;
79498;BMP180;75160;53.138;18.020;2024-01-06T13:48:38;100778.20;;;
79498;BMP180;75160;53.138;18.020;2024-01-06T13:49:40;100778.20;;;
79498;BMP180;75160;53.138;18.020;2024-01-06T13:50:42;100785.60;;;
79498;BMP180;75160;53.138;18.020;2024-01-06T13:51:44;100775.00;;;
79498;BMP180;75160;53.138;18.020;2024-01-06T13:52:46;100783.20;;;
79498;BMP180;75160;53.138;18.020;2024-01-06T13:53:50;100783.60;;;
79498;BMP180;75160;53.138;18.020;2024-01-06T13:54:52;100778.60;;;
79498;BMP180;75160;53.138;18.020;2024-01-06T13:55:54;100787.40;;;
79498;BMP180;75160;53.138;18.020;2024-01-06T13:56:56;100787.00;;;
79498;BMP180;75160;53.138;18.020;2024-01-06T13:57:58;100784.80;;;
79498;BMP180;75160;53.138;18.020;2024-01-06T13:59:00;100783.80;;;
79498;BMP180;75160;53.138;18.020;2024-01-06T14:00:02;100795.80;;;
79498;BMP180;75160;53.138;18.020;2024-01-06T14:01:06;100791.60;;;
79498;BMP180;75160;53.138;18.020;2024-01-06T14:02:10;100795.40;;;
79498;BMP180;75160;53.138;18.020;2024-01-06T14:03:12;100797.00;;;
79498;BMP180;75160;53.138;18.020;2024-01-06T14:04:14;100796.00;;;
79498;BMP180;75160;53.138;18.020;2024-01-06T14:05:16;100795.80;;;
79498;BMP180;75160;53.138;18.020;2024-01-06T14:06:20;100807.60;;;
79498;BMP180;75160;53.138;18.020;2024-01-06T14:07:23;100804.40;;;
79498;BMP180;75160;53.138;18.020;2024-01-06T14:08:25;100805.40;;;
79498;BMP180;75160;53.138;18.020;2024-01-06T14:09:27;100811.40;;;
79498;BMP180;75160;53.138;18.020;2024-01-06T14:10:29;100810.20;;;
79498;BMP180;75160;53.138;18.020;2024-01-06T14:11:33;100812.00;;;
79498;BMP180;75160;53.138;18.020;2024-01-06T14:12:35;100813.20;;;
79498;BMP180;75160;53.138;18.020;2024-01-06T14:13:37;100813.60;;;
79498;BMP180;75160;53.138;18.020;2024-01-06T14:14:40;100817.20;;;
79498;BMP180;75160;53.138;18.020;2024-01-06T14:15:43;100815.00;;;
79498;BMP180;75160;53.138;18.020;2024-01-06T14:16:46;100820.20;;;
79498;BMP180;75160;53.138;18.020;2024-01-06T14:17:48;100815.40;;;
79498;BMP180;75160;53.138;18.020;2024-01-06T14:18:52;100819.00;;;
79498;BMP180;75160;53.138;18.020;2024-01-06T14:19:54;100818.80;;;
79498;BMP180;75160;53.138;18.020;2024-01-06T14:20:56;100819.40;;;
79498;BMP180;75160;53.138;18.020;2024-01-06T14:21:58;100824.20;;;
79498;BMP180;75160;53.138;18.020;2024-01-06T14:23:00;100830.20;;;
79498;BMP180;75160;53.138;18.020;2024-01-06T14:24:02;100824.00;;;
79498;BMP180;75160;53.138;18.020;2024-01-06T14:25:04;100829.20;;;
79498;BMP180;75160;53.138;18.020;2024-01-06T14:26:07;100832.20;;;
79498;BMP180;75160;53.138;18.020;2024-01-06T14:27:09;100824.00;;;
79498;BMP180;75160;53.138;18.020;2024-01-06T14:28:11;100833.40;;;
79498;BMP180;75160;53.138;18.020;2024-01-06T14:29:13;100839.20;;;
79498;BMP180;75160;53.138;18.020;2024-01-06T14:30:18;100839.60;;;
79498;BMP180;75160;53.138;18.020;2024-01-06T14:31:21;100837.40;;;
79498;BMP180;75160;53.138;18.020;2024-01-06T14:32:23;100840.80;;;
79498;BMP180;75160;53.138;18.020;2024-01-06T14:33:25;100835.20;;;
79498;BMP180;75160;53.138;18.020;2024-01-06T14:34:28;100841.80;;;
79498;BMP180;75160;53.138;18.020;2024-01-06T14:35:30;100843.20;;;
79498;BMP180;75160;53.138;18.020;2024-01-06T14:36:32;100837.40;;;
79498;BMP180;75160;53.138;18.020;2024-01-06T14:37:34;100842.00;;;
79498;BMP180;75160;53.138;18.020;2024-01-06T14:38:35;100842.40;;;
79498;BMP180;75160;53.138;18.020;2024-01-06T14:39:37;100850.00;;;
79498;BMP180;75160;53.138;18.020;2024-01-06T14:40:39;100839.60;;;
79498;BMP180;75160;53.138;18.020;2024-01-06T14:41:41;100845.20;;;
79498;BMP180;75160;53.138;18.020;2024-01-06T14:42:42;100844.20;;;
79498;BMP180;75160;53.138;18.020;2024-01-06T14:43:44;100840.60;;;
79498;BMP180;75160;53.138;18.020;2024-01-06T14:44:46;100848.60;;;
79498;BMP180;75160;53.138;18.020;2024-01-06T14:45:48;100846.00;;;
79498;BMP180;75160;53.138;18.020;2024-01-06T14:46:50;100842.00;;;
79498;BMP180;75160;53.138;18.020;2024-01-06T14:47:52;100844.00;;;
79498;BMP180;75160;53.138;18.020;2024-01-06T14:48:54;100843.60;;;
79498;BMP180;75160;53.138;18.020;2024-01-06T14:49:56;100843.80;;;
79498;BMP180;75160;53.138;18.020;2024-01-06T14:50:58;100845.00;;;
79498;BMP180;75160;53.138;18.020;2024-01-06T14:52:00;100845.60;;;
79498;BMP180;75160;53.138;18.020;2024-01-06T14:53:03;100847.00;;;
79498;BMP180;75160;53.138;18.020;2024-01-06T14:54:05;100848.00;;;
79498;BMP180;75160;53.138;18.020;2024-01-06T14:55:09;100852.00;;;
79498;BMP180;75160;53.138;18.020;2024-01-06T14:56:12;100851.00;;;
79498;BMP180;75160;53.138;18.020;2024-01-06T14:57:13;100844.20;;;
79498;BMP180;75160;53.138;18.020;2024-01-06T14:58:16;100847.20;;;
79498;BMP180;75160;53.138;18.020;2024-01-06T14:59:18;100850.60;;;
79498;BMP180;75160;53.138;18.020;2024-01-06T15:00:20;100859.00;;;
79498;BMP180;75160;53.138;18.020;2024-01-06T15:01:22;100858.60;;;
79498;BMP180;75160;53.138;18.020;2024-01-06T15:02:24;100855.80;;;
79498;BMP180;75160;53.138;18.020;2024-01-06T15:03:25;100857.80;;;
79498;BMP180;75160;53.138;18.020;2024-01-06T15:04:27;100862.00;;;
79498;BMP180;75160;53.138;18.020;2024-01-06T15:05:29;100866.60;;;
79498;BMP180;75160;53.138;18.020;2024-01-06T15:06:31;100864.00;;;
79498;BMP180;75160;53.138;18.020;2024-01-06T15:07:33;100865.60;;;
79498;BMP180;75160;53.138;18.020;2024-01-06T15:08:35;100869.20;;;
79498;BMP180;75160;53.138;18.020;2024-01-06T15:09:41;100869.40;;;
79498;BMP180;75160;53.138;18.020;2024-01-06T15:10:43;100866.40;;;
79498;BMP180;75160;53.138;18.020;2024-01-06T15:11:45;100870.00;;;
79498;BMP180;75160;53.138;18.020;2024-01-06T15:12:47;100868.00;;;
79498;BMP180;75160;53.138;18.020;2024-01-06T15:13:49;100868.60;;;
79498;BMP180;75160;53.138;18.020;2024-01-06T15:14:51;100870.40;;;
79498;BMP180;75160;53.138;18.020;2024-01-06T15:15:53;100872.40;;;
79498;BMP180;75160;53.138;18.020;2024-01-06T15:16:55;100873.60;;;
79498;BMP180;75160;53.138;18.020;2024-01-06T15:17:57;100876.60;;;
79498;BMP180;75160;53.138;18.020;2024-01-06T15:18:59;100883.00;;;
79498;BMP180;75160;53.138;18.020;2024-01-06T15:20:03;100882.40;;;
79498;BMP180;75160;53.138;18.020;2024-01-06T15:21:05;100879.20;;;
79498;BMP180;75160;53.138;18.020;2024-01-06T15:22:07;100887.40;;;
79498;BMP180;75160;53.138;18.020;2024-01-06T15:23:09;100882.60;;;
79498;BMP180;75160;53.138;18.020;2024-01-06T15:24:11;100882.60;;;
79498;BMP180;75160;53.138;18.020;2024-01-06T15:25:15;100894.80;;;
79498;BMP180;75160;53.138;18.020;2024-01-06T15:26:25;100896.80;;;
79498;BMP180;75160;53.138;18.020;2024-01-06T15:27:27;100896.20;;;
79498;BMP180;75160;53.138;18.020;2024-01-06T15:28:29;100903.60;;;
79498;BMP180;75160;53.138;18.020;2024-01-06T15:29:31;100898.20;;;
79498;BMP180;75160;53.138;18.020;2024-01-06T15:30:33;100901.20;;;
79498;BMP180;75160;53.138;18.020;2024-01-06T15:31:35;100901.80;;;
79498;BMP180;75160;53.138;18.020;2024-01-06T15:32:37;100901.60;;;
79498;BMP180;75160;53.138;18.020;2024-01-06T15:33:39;100902.00;;;
79498;BMP180;75160;53.138;18.020;2024-01-06T15:34:43;100901.80;;;
79498;BMP180;75160;53.138;18.020;2024-01-06T15:35:45;100903.80;;;
79498;BMP180;75160;53.138;18.020;2024-01-06T15:36:47;100900.80;;;
79498;BMP180;75160;53.138;18.020;2024-01-06T15:37:49;100903.40;;;
79498;BMP180;75160;53.138;18.020;2024-01-06T15:38:50;100902.00;;;
79498;BMP180;75160;53.138;18.020;2024-01-06T15:39:52;100908.80;;;
79498;BMP180;75160;53.138;18.020;2024-01-06T15:40:54;100907.40;;;
79498;BMP180;75160;53.138;18.020;2024-01-06T15:41:56;100907.20;;;
79498;BMP180;75160;53.138;18.020;2024-01-06T15:42:57;100905.20;;;
79498;BMP180;75160;53.138;18.020;2024-01-06T15:44:00;100909.60;;;
79498;BMP180;75160;53.138;18.020;2024-01-06T15:45:02;100913.40;;;
79498;BMP180;75160;53.138;18.020;2024-01-06T15:46:04;100911.60;;;
79498;BMP180;75160;53.138;18.020;2024-01-06T15:47:05;100913.20;;;
79498;BMP180;75160;53.138;18.020;2024-01-06T15:48:07;100917.80;;;
79498;BMP180;75160;53.138;18.020;2024-01-06T15:49:10;100917.60;;;
79498;BMP180;75160;53.138;18.020;2024-01-06T15:50:12;100917.00;;;
79498;BMP180;75160;53.138;18.020;2024-01-06T15:51:14;100921.80;;;
79498;BMP180;75160;53.138;18.020;2024-01-06T15:52:16;100920.80;;;
79498;BMP180;75160;53.138;18.020;2024-01-06T15:53:22;100923.80;;;
79498;BMP180;75160;53.138;18.020;2024-01-06T15:54:24;100921.40;;;
79498;BMP180;75160;53.138;18.020;2024-01-06T15:55:26;100921.40;;;
79498;BMP180;75160;53.138;18.020;2024-01-06T15:56:28;100916.00;;;
79498;BMP180;75160;53.138;18.020;2024-01-06T15:57:30;100916.80;;;
79498;BMP180;75160;53.138;18.020;2024-01-06T15:58:34;100911.60;;;
79498;BMP180;75160;53.138;18.020;2024-01-06T15:59:36;100914.20;;;
79498;BMP180;75160;53.138;18.020;2024-01-06T16:00:38;100920.60;;;
79498;BMP180;75160;53.138;18.020;2024-01-06T16:01:40;100921.20;;;
79498;BMP180;75160;53.138;18.020;2024-01-06T16:02:42;100927.40;;;
79498;BMP180;75160;53.138;18.020;2024-01-06T16:03:43;100920.80;;;
79498;BMP180;75160;53.138;18.020;2024-01-06T16:04:46;100923.00;;;
79498;BMP180;75160;53.138;18.020;2024-01-06T16:05:47;100923.00;;;
79498;BMP180;75160;53.138;18.020;2024-01-06T16:06:49;100927.80;;;
79498;BMP180;75160;53.138;18.020;2024-01-06T16:07:54;100928.00;;;
79498;BMP180;75160;53.138;18.020;2024-01-06T16:08:55;100928.00;;;
79498;BMP180;75160;53.138;18.020;2024-01-06T16:09:57;100929.60;;;
79498;BMP180;75160;53.138;18.020;2024-01-06T16:10:59;100925.60;;;
79498;BMP180;75160;53.138;18.020;2024-01-06T16:12:02;100928.80;;;
79498;BMP180;75160;53.138;18.020;2024-01-06T16:13:05;100929.80;;;
79498;BMP180;75160;53.138;18.020;2024-01-06T16:14:07;100924.20;;;
79498;BMP180;75160;53.138;18.020;2024-01-06T16:15:10;100923.20;;;
79498;BMP180;75160;53.138;18.020;2024-01-06T16:16:12;100929.00;;;
79498;BMP180;75160;53.138;18.020;2024-01-06T16:17:14;100936.60;;;
79498;BMP180;75160;53.138;18.020;2024-01-06T16:18:18;100937.00;;;
79498;BMP180;75160;53.138;18.020;2024-01-06T16:19:21;100941.40;;;
79498;BMP180;75160;53.138;18.020;2024-01-06T16:20:23;100940.20;;;
79498;BMP180;75160;53.138;18.020;2024-01-06T16:21:25;100947.60;;;
79498;BMP180;75160;53.138;18.020;2024-01-06T16:22:27;100950.20;;;
79498;BMP180;75160;53.138;18.020;2024-01-06T16:23:29;100952.60;;;
79498;BMP180;75160;53.138;18.020;2024-01-06T16:24:32;100951.80;;;
79498;BMP180;75160;53.138;18.020;2024-01-06T16:25:38;100949.60;;;
79498;BMP180;75160;53.138;18.020;2024-01-06T16:26:40;100951.80;;;
79498;BMP180;75160;53.138;18.020;2024-01-06T16:27:43;100950.40;;;
79498;BMP180;75160;53.138;18.020;2024-01-06T16:28:46;100948.60;;;
79498;BMP180;75160;53.138;18.020;2024-01-06T16:29:48;100954.20;;;
79498;BMP180;75160;53.138;18.020;2024-01-06T16:30:50;100953.60;;;
79498;BMP180;75160;53.138;18.020;2024-01-06T16:31:52;100945.40;;;
79498;BMP180;75160;53.138;18.020;2024-01-06T16:32:54;100948.00;;;
79498;BMP180;75160;53.138;18.020;2024-01-06T16:33:56;100950.60;;;
79498;BMP180;75160;53.138;18.020;2024-01-06T16:34:58;100949.60;;;
79498;BMP180;75160;53.138;18.020;2024-01-06T16:36:00;100935.40;;;
79498;BMP180;75160;53.138;18.020;2024-01-06T16:37:02;100943.80;;;
79498;BMP180;75160;53.138;18.020;2024-01-06T16:38:04;100944.40;;;
79498;BMP180;75160;53.138;18.020;2024-01-06T16:39:06;100947.80;;;
79498;BMP180;75160;53.138;18.020;2024-01-06T16:40:08;100945.80;;;
79498;BMP180;75160;53.138;18.020;2024-01-06T16:41:11;100947.40;;;
79498;BMP180;75160;53.138;18.020;2024-01-06T16:42:13;100947.00;;;
79498;BMP180;75160;53.138;18.020;2024-01-06T16:43:15;100948.20;;;
79498;BMP180;75160;53.138;18.020;2024-01-06T16:44:17;100945.60;;;
79498;BMP180;75160;53.138;18.020;2024-01-06T16:45:19;100952.20;;;
79498;BMP180;75160;53.138;18.020;2024-01-06T16:46:22;100943.40;;;
79498;BMP180;75160;53.138;18.020;2024-01-06T16:47:23;100945.60;;;
79498;BMP180;75160;53.138;18.020;2024-01-06T16:48:26;100944.60;;;
79498;BMP180;75160;53.138;18.020;2024-01-06T16:49:28;100950.40;;;
79498;BMP180;75160;53.138;18.020;2024-01-06T16:50:33;100950.40;;;
79498;BMP180;75160;53.138;18.020;2024-01-06T16:51:34;100958.80;;;
79498;BMP180;75160;53.138;18.020;2024-01-06T16:52:37;100957.80;;;
79498;BMP180;75160;53.138;18.020;2024-01-06T16:53:39;100959.60;;;
79498;BMP180;75160;53.138;18.020;2024-01-06T16:54:41;100966.80;;;
79498;BMP180;75160;53.138;18.020;2024-01-06T16:55:43;100972.00;;;
79498;BMP180;75160;53.138;18.020;2024-01-06T16:56:45;100966.00;;;
79498;BMP180;75160;53.138;18.020;2024-01-06T16:57:47;100973.20;;;
79498;BMP180;75160;53.138;18.020;2024-01-06T16:58:49;100971.60;;;
79498;BMP180;75160;53.138;18.020;2024-01-06T16:59:51;100968.80;;;
79498;BMP180;75160;53.138;18.020;2024-01-06T17:00:53;100968.20;;;
79498;BMP180;75160;53.138;18.020;2024-01-06T17:01:55;100971.00;;;
79498;BMP180;75160;53.138;18.020;2024-01-06T17:02:57;100966.60;;;
79498;BMP180;75160;53.138;18.020;2024-01-06T17:03:59;100972.80;;;
79498;BMP180;75160;53.138;18.020;2024-01-06T17:05:01;100971.60;;;
79498;BMP180;75160;53.138;18.020;2024-01-06T17:06:03;100972.60;;;
79498;BMP180;75160;53.138;18.020;2024-01-06T17:07:06;100976.80;;;
79498;BMP180;75160;53.138;18.020;2024-01-06T17:08:08;100978.60;;;
79498;BMP180;75160;53.138;18.020;2024-01-06T17:09:10;100980.80;;;
79498;BMP180;75160;53.138;18.020;2024-01-06T17:10:14;100974.00;;;
79498;BMP180;75160;53.138;18.020;2024-01-06T17:11:16;100972.00;;;
79498;BMP180;75160;53.138;18.020;2024-01-06T17:12:17;100974.00;;;
79498;BMP180;75160;53.138;18.020;2024-01-06T17:13:19;100977.00;;;
79498;BMP180;75160;53.138;18.020;2024-01-06T17:14:23;100976.00;;;
79498;BMP180;75160;53.138;18.020;2024-01-06T17:15:25;100974.40;;;
79498;BMP180;75160;53.138;18.020;2024-01-06T17:16:30;100977.80;;;
79498;BMP180;75160;53.138;18.020;2024-01-06T17:17:32;100980.20;;;
79498;BMP180;75160;53.138;18.020;2024-01-06T17:18:34;100983.40;;;
79498;BMP180;75160;53.138;18.020;2024-01-06T17:19:35;100984.00;;;
79498;BMP180;75160;53.138;18.020;2024-01-06T17:20:37;100989.80;;;
79498;BMP180;75160;53.138;18.020;2024-01-06T17:21:41;100993.00;;;
79498;BMP180;75160;53.138;18.020;2024-01-06T17:22:42;100990.20;;;
79498;BMP180;75160;53.138;18.020;2024-01-06T17:23:46;100992.40;;;
79498;BMP180;75160;53.138;18.020;2024-01-06T17:24:48;100999.00;;;
79498;BMP180;75160;53.138;18.020;2024-01-06T17:25:50;100999.60;;;
79498;BMP180;75160;53.138;18.020;2024-01-06T17:26:52;100999.20;;;
79498;BMP180;75160;53.138;18.020;2024-01-06T17:27:54;101002.60;;;
79498;BMP180;75160;53.138;18.020;2024-01-06T17:28:56;101000.60;;;
79498;BMP180;75160;53.138;18.020;2024-01-06T17:29:58;101002.20;;;
79498;BMP180;75160;53.138;18.020;2024-01-06T17:30:59;100987.80;;;
79498;BMP180;75160;53.138;18.020;2024-01-06T17:32:02;100999.00;;;
79498;BMP180;75160;53.138;18.020;2024-01-06T17:33:04;100991.40;;;
79498;BMP180;75160;53.138;18.020;2024-01-06T17:34:06;100993.80;;;
79498;BMP180;75160;53.138;18.020;2024-01-06T17:35:08;100992.40;;;
79498;BMP180;75160;53.138;18.020;2024-01-06T17:36:28;101001.20;;;
79498;BMP180;75160;53.138;18.020;2024-01-06T17:37:30;101008.00;;;
79498;BMP180;75160;53.138;18.020;2024-01-06T17:38:32;101010.60;;;
79498;BMP180;75160;53.138;18.020;2024-01-06T17:40:55;101006.40;;;
79498;BMP180;75160;53.138;18.020;2024-01-06T17:41:57;101006.00;;;
79498;BMP180;75160;53.138;18.020;2024-01-06T17:42:58;101002.00;;;
79498;BMP180;75160;53.138;18.020;2024-01-06T17:44:00;101009.60;;;
79498;BMP180;75160;53.138;18.020;2024-01-06T17:45:04;101017.60;;;
79498;BMP180;75160;53.138;18.020;2024-01-06T17:46:07;101013.20;;;
79498;BMP180;75160;53.138;18.020;2024-01-06T17:47:09;101016.40;;;
79498;BMP180;75160;53.138;18.020;2024-01-06T17:48:11;101014.00;;;
79498;BMP180;75160;53.138;18.020;2024-01-06T17:49:13;101016.40;;;
79498;BMP180;75160;53.138;18.020;2024-01-06T17:50:15;101015.40;;;
79498;BMP180;75160;53.138;18.020;2024-01-06T17:51:16;101014.00;;;
79498;BMP180;75160;53.138;18.020;2024-01-06T17:52:21;101012.20;;;
79498;BMP180;75160;53.138;18.020;2024-01-06T17:53:27;101017.00;;;
79498;BMP180;75160;53.138;18.020;2024-01-06T17:54:29;101012.20;;;
79498;BMP180;75160;53.138;18.020;2024-01-06T17:55:31;101019.60;;;
79498;BMP180;75160;53.138;18.020;2024-01-06T17:56:33;101027.60;;;
79498;BMP180;75160;53.138;18.020;2024-01-06T17:57:35;101024.40;;;
79498;BMP180;75160;53.138;18.020;2024-01-06T17:58:37;101022.00;;;
79498;BMP180;75160;53.138;18.020;2024-01-06T17:59:38;101020.20;;;
79498;BMP180;75160;53.138;18.020;2024-01-06T18:00:40;101028.80;;;
79498;BMP180;75160;53.138;18.020;2024-01-06T18:01:42;101032.00;;;
79498;BMP180;75160;53.138;18.020;2024-01-06T18:02:44;101023.60;;;
79498;BMP180;75160;53.138;18.020;2024-01-06T18:03:48;101027.80;;;
79498;BMP180;75160;53.138;18.020;2024-01-06T18:04:50;101037.00;;;
79498;BMP180;75160;53.138;18.020;2024-01-06T18:05:52;101031.80;;;
79498;BMP180;75160;53.138;18.020;2024-01-06T18:06:54;101035.00;;;
79498;BMP180;75160;53.138;18.020;2024-01-06T18:07:55;101038.40;;;
79498;BMP180;75160;53.138;18.020;2024-01-06T18:08:57;101041.80;;;
79498;BMP180;75160;53.138;18.020;2024-01-06T18:09:59;101034.20;;;
79498;BMP180;75160;53.138;18.020;2024-01-06T18:11:01;101038.60;;;
79498;BMP180;75160;53.138;18.020;2024-01-06T18:12:03;101042.00;;;
79498;BMP180;75160;53.138;18.020;2024-01-06T18:13:05;101042.00;;;
79498;BMP180;75160;53.138;18.020;2024-01-06T18:14:07;101040.60;;;
79498;BMP180;75160;53.138;18.020;2024-01-06T18:15:09;101038.80;;;
79498;BMP180;75160;53.138;18.020;2024-01-06T18:16:12;101034.60;;;
79498;BMP180;75160;53.138;18.020;2024-01-06T18:17:15;101045.00;;;
79498;BMP180;75160;53.138;18.020;2024-01-06T18:18:17;101042.40;;;
79498;BMP180;75160;53.138;18.020;2024-01-06T18:19:18;101038.20;;;
79498;BMP180;75160;53.138;18.020;2024-01-06T18:20:20;101042.60;;;
79498;BMP180;75160;53.138;18.020;2024-01-06T18:21:22;101042.40;;;
79498;BMP180;75160;53.138;18.020;2024-01-06T18:22:24;101037.00;;;
79498;BMP180;75160;53.138;18.020;2024-01-06T18:23:26;101042.00;;;
79498;BMP180;75160;53.138;18.020;2024-01-06T18:24:28;101047.60;;;
79498;BMP180;75160;53.138;18.020;2024-01-06T18:25:31;101049.20;;;
79498;BMP180;75160;53.138;18.020;2024-01-06T18:26:33;101053.80;;;
79498;BMP180;75160;53.138;18.020;2024-01-06T18:27:35;101054.20;;;
79498;BMP180;75160;53.138;18.020;2024-01-06T18:28:37;101055.20;;;
79498;BMP180;75160;53.138;18.020;2024-01-06T18:29:39;101049.20;;;
79498;BMP180;75160;53.138;18.020;2024-01-06T18:30:41;101052.00;;;
79498;BMP180;75160;53.138;18.020;2024-01-06T18:31:43;101054.60;;;
79498;BMP180;75160;53.138;18.020;2024-01-06T18:32:45;101053.60;;;
79498;BMP180;75160;53.138;18.020;2024-01-06T18:33:46;101053.80;;;
79498;BMP180;75160;53.138;18.020;2024-01-06T18:34:49;101057.80;;;
79498;BMP180;75160;53.138;18.020;2024-01-06T18:35:50;101057.80;;;
79498;BMP180;75160;53.138;18.020;2024-01-06T18:36:52;101057.60;;;
79498;BMP180;75160;53.138;18.020;2024-01-06T18:37:55;101060.40;;;
79498;BMP180;75160;53.138;18.020;2024-01-06T18:38:56;101063.20;;;
79498;BMP180;75160;53.138;18.020;2024-01-06T18:39:58;101062.40;;;
79498;BMP180;75160;53.138;18.020;2024-01-06T18:41:00;101070.20;;;
79498;BMP180;75160;53.138;18.020;2024-01-06T18:42:03;101070.60;;;
79498;BMP180;75160;53.138;18.020;2024-01-06T18:43:05;101072.00;;;
79498;BMP180;75160;53.138;18.020;2024-01-06T18:44:07;101075.60;;;
79498;BMP180;75160;53.138;18.020;2024-01-06T18:45:11;101067.20;;;
79498;BMP180;75160;53.138;18.020;2024-01-06T18:46:12;101071.40;;;
79498;BMP180;75160;53.138;18.020;2024-01-06T18:47:14;101062.20;;;
79498;BMP180;75160;53.138;18.020;2024-01-06T18:48:16;101068.60;;;
79498;BMP180;75160;53.138;18.020;2024-01-06T18:49:18;101071.00;;;
79498;BMP180;75160;53.138;18.020;2024-01-06T18:50:21;101070.00;;;
79498;BMP180;75160;53.138;18.020;2024-01-06T18:51:24;101069.80;;;
79498;BMP180;75160;53.138;18.020;2024-01-06T18:52:26;101075.80;;;
79498;BMP180;75160;53.138;18.020;2024-01-06T18:53:27;101081.40;;;
79498;BMP180;75160;53.138;18.020;2024-01-06T18:54:29;101076.40;;;
79498;BMP180;75160;53.138;18.020;2024-01-06T18:55:31;101084.20;;;
79498;BMP180;75160;53.138;18.020;2024-01-06T18:56:33;101080.20;;;
79498;BMP180;75160;53.138;18.020;2024-01-06T18:57:35;101073.40;;;
79498;BMP180;75160;53.138;18.020;2024-01-06T18:58:37;101074.80;;;
79498;BMP180;75160;53.138;18.020;2024-01-06T18:59:38;101079.20;;;
79498;BMP180;75160;53.138;18.020;2024-01-06T19:00:40;101079.60;;;
79498;BMP180;75160;53.138;18.020;2024-01-06T19:01:42;101080.60;;;
79498;BMP180;75160;53.138;18.020;2024-01-06T19:02:45;101077.80;;;
79498;BMP180;75160;53.138;18.020;2024-01-06T19:03:49;101090.60;;;
79498;BMP180;75160;53.138;18.020;2024-01-06T19:04:51;101082.80;;;
79498;BMP180;75160;53.138;18.020;2024-01-06T19:05:52;101079.80;;;
79498;BMP180;75160;53.138;18.020;2024-01-06T19:06:54;101088.60;;;
79498;BMP180;75160;53.138;18.020;2024-01-06T19:07:56;101086.80;;;
79498;BMP180;75160;53.138;18.020;2024-01-06T19:08:58;101089.60;;;
79498;BMP180;75160;53.138;18.020;2024-01-06T19:10:00;101090.40;;;
79498;BMP180;75160;53.138;18.020;2024-01-06T19:11:02;101091.80;;;
79498;BMP180;75160;53.138;18.020;2024-01-06T19:12:04;101091.80;;;
79498;BMP180;75160;53.138;18.020;2024-01-06T19:13:07;101099.00;;;
79498;BMP180;75160;53.138;18.020;2024-01-06T19:14:10;101101.00;;;
79498;BMP180;75160;53.138;18.020;2024-01-06T19:15:12;101100.00;;;
79498;BMP180;75160;53.138;18.020;2024-01-06T19:16:14;101093.60;;;
79498;BMP180;75160;53.138;18.020;2024-01-06T19:17:15;101094.00;;;
79498;BMP180;75160;53.138;18.020;2024-01-06T19:18:17;101097.20;;;
79498;BMP180;75160;53.138;18.020;2024-01-06T19:19:19;101098.40;;;
79498;BMP180;75160;53.138;18.020;2024-01-06T19:20:21;101102.20;;;
79498;BMP180;75160;53.138;18.020;2024-01-06T19:21:25;101095.40;;;
79498;BMP180;75160;53.138;18.020;2024-01-06T19:22:26;101101.00;;;
79498;BMP180;75160;53.138;18.020;2024-01-06T19:23:28;101100.80;;;
79498;BMP180;75160;53.138;18.020;2024-01-06T19:24:30;101105.80;;;
79498;BMP180;75160;53.138;18.020;2024-01-06T19:25:32;101106.20;;;
79498;BMP180;75160;53.138;18.020;2024-01-06T19:26:34;101105.80;;;
79498;BMP180;75160;53.138;18.020;2024-01-06T19:27:35;101102.00;;;
79498;BMP180;75160;53.138;18.020;2024-01-06T19:28:37;101101.60;;;
79498;BMP180;75160;53.138;18.020;2024-01-06T19:29:41;101100.20;;;
79498;BMP180;75160;53.138;18.020;2024-01-06T19:30:44;101099.00;;;
79498;BMP180;75160;53.138;18.020;2024-01-06T19:31:46;101093.20;;;
79498;BMP180;75160;53.138;18.020;2024-01-06T19:32:47;101092.60;;;
79498;BMP180;75160;53.138;18.020;2024-01-06T19:33:49;101093.40;;;
79498;BMP180;75160;53.138;18.020;2024-01-06T19:34:53;101090.40;;;
79498;BMP180;75160;53.138;18.020;2024-01-06T19:35:56;101092.40;;;
79498;BMP180;75160;53.138;18.020;2024-01-06T19:36:57;101094.00;;;
79498;BMP180;75160;53.138;18.020;2024-01-06T19:37:59;101092.00;;;
79498;BMP180;75160;53.138;18.020;2024-01-06T19:39:01;101091.60;;;
79498;BMP180;75160;53.138;18.020;2024-01-06T19:40:03;101090.80;;;
79498;BMP180;75160;53.138;18.020;2024-01-06T19:41:05;101092.60;;;
79498;BMP180;75160;53.138;18.020;2024-01-06T19:42:07;101088.60;;;
79498;BMP180;75160;53.138;18.020;2024-01-06T19:43:09;101090.60;;;
79498;BMP180;75160;53.138;18.020;2024-01-06T19:44:10;101094.60;;;
79498;BMP180;75160;53.138;18.020;2024-01-06T19:45:13;101098.80;;;
79498;BMP180;75160;53.138;18.020;2024-01-06T19:46:15;101099.00;;;
79498;BMP180;75160;53.138;18.020;2024-01-06T19:47:18;101093.80;;;
79498;BMP180;75160;53.138;18.020;2024-01-06T19:48:20;101098.60;;;